San Francisco, California
Traffic Map
Current Weather Conditions
San Francisco, California
Few Clouds
Few Clouds
55°
Feels Like: 55°
Wind Chill: 55° Ceiling: Unl
Heat Index: 55° Visibility: 10mi
Dew Point: 51° Wind: 9mph
Humidity: 86% Direction: 290° (WNW)
Pressure: 29.97in Gusts: 0mph
Raw Report DataKSFO 230656Z 29008KT 10SM FEW007 13/11 A2997 RMK AO2 SLP147 T01280106
Traffic Incident Summary
Active as of:
Severity:
Category:
InformationThere was an issue retrieving the traffic information for this location. Please try a different location or try again shortly.
Advertisements
Track Severe Weather on mobile